Time;durP1;ratioP1;P1;durP2;ratioP2;P2;SDS_P1;SDS_P2;PMS_P1;PMS_P2;Temp;Humidity;BMP_temperature;BMP_pressure;BME280_temperature;BME280_humidity;BME280_pressure;Samples;Min_cycle;Max_cycle;Signal;HPM_P1;HPM_P2
2022/04/12 00:00:36;;;;;;;6.87;5.50;;;6.90;99.90;;;;;;5056580;28;20268;-63
2022/04/12 00:03:03;;;;;;;8.90;5.70;;;6.90;99.90;;;;;;5056395;28;20179;-61
2022/04/12 00:05:28;;;;;;;9.03;5.93;;;6.90;99.90;;;;;;5056841;28;20188;-62
2022/04/12 00:07:54;;;;;;;7.33;5.77;;;6.80;99.90;;;;;;5055587;28;20183;-61
2022/04/12 00:10:20;;;;;;;7.47;5.90;;;6.80;99.90;;;;;;5056469;28;20214;-61
2022/04/12 00:12:46;;;;;;;7.37;5.97;;;6.80;99.90;;;;;;5056608;28;20175;-61
2022/04/12 00:15:12;;;;;;;7.53;6.10;;;6.70;99.90;;;;;;5056652;28;20175;-61
2022/04/12 00:20:26;;;;;;;7.17;5.97;;;6.70;99.90;;;;;;5056267;28;20205;-60
2022/04/12 00:22:53;;;;;;;7.87;6.27;;;6.50;99.90;;;;;;5058211;28;20175;-61
2022/04/12 00:25:22;;;;;;;9.97;5.93;;;6.40;99.90;;;;;;5074600;28;20162;-61
2022/04/12 00:27:49;;;;;;;8.23;6.07;;;6.30;99.90;;;;;;5056174;28;20364;-61
2022/04/12 00:30:15;;;;;;;7.57;6.27;;;6.40;99.90;;;;;;5056062;28;20197;-62
2022/04/12 00:32:41;;;;;;;7.93;6.27;;;6.40;99.90;;;;;;5055785;28;20175;-61
2022/04/12 00:35:07;;;;;;;9.73;6.03;;;6.40;99.90;;;;;;5056278;28;20177;-61
2022/04/12 00:37:33;;;;;;;9.10;6.40;;;6.40;99.90;;;;;;5056005;28;20225;-60
2022/04/12 00:39:59;;;;;;;8.20;5.80;;;6.40;99.90;;;;;;5054656;28;20202;-60
2022/04/12 00:42:25;;;;;;;7.20;5.90;;;6.50;99.90;;;;;;5055915;28;20173;-61
2022/04/12 00:44:50;;;;;;;6.77;5.90;;;6.60;99.90;;;;;;5056055;28;20627;-62
2022/04/12 00:47:16;;;;;;;7.10;5.50;;;6.40;99.90;;;;;;5055792;28;20210;-60
2022/04/12 00:49:42;;;;;;;7.93;6.43;;;6.40;99.90;;;;;;5055523;28;20203;-60
2022/04/12 00:52:09;;;;;;;7.67;6.50;;;6.40;99.90;;;;;;5055702;28;20228;-61
2022/04/12 00:54:37;;;;;;;7.23;6.10;;;6.30;99.90;;;;;;5071442;28;20189;-61
2022/04/12 00:57:04;;;;;;;8.40;6.40;;;6.30;99.90;;;;;;5059416;28;20572;-60
2022/04/12 00:59:32;;;;;;;7.50;6.07;;;6.30;99.90;;;;;;5055697;28;20232;-61
2022/04/12 01:01:58;;;;;;;10.37;6.77;;;6.30;99.90;;;;;;5055514;28;20170;-61
2022/04/12 01:04:24;;;;;;;9.53;6.50;;;6.20;99.90;;;;;;5055344;28;20200;-61
2022/04/12 01:06:51;;;;;;;7.73;6.07;;;6.10;99.90;;;;;;5054143;28;20190;-61
2022/04/12 01:09:17;;;;;;;7.50;6.07;;;6.00;99.90;;;;;;5055593;28;20223;-60
2022/04/12 01:11:48;;;;;;;9.50;6.43;;;6.10;99.90;;;;;;5055267;28;20205;-61
2022/04/12 01:14:15;;;;;;;7.67;6.10;;;6.10;99.90;;;;;;5054167;28;20181;-62
2022/04/12 01:16:41;;;;;;;10.30;6.23;;;6.10;99.90;;;;;;5055115;28;20291;-62
2022/04/12 01:19:06;;;;;;;9.47;6.47;;;6.10;99.90;;;;;;5055013;28;20655;-60
2022/04/12 01:21:49;;;;;;;7.77;6.70;;;6.10;99.90;;;;;;5055455;28;20345;-61
2022/04/12 01:24:15;;;;;;;7.80;6.40;;;6.10;99.90;;;;;;5068676;28;20180;-63
2022/04/12 01:26:41;;;;;;;9.00;6.30;;;6.20;99.90;;;;;;5060625;28;20198;-61
2022/04/12 01:29:06;;;;;;;10.17;6.30;;;6.20;99.90;;;;;;5055318;28;20241;-60
2022/04/12 01:31:32;;;;;;;9.20;6.33;;;6.10;99.90;;;;;;5054910;28;20663;-60
2022/04/12 01:33:58;;;;;;;6.87;6.17;;;6.20;99.90;;;;;;5054944;28;20600;-63
2022/04/12 01:36:23;;;;;;;7.97;6.30;;;6.20;99.90;;;;;;5053769;28;20210;-60
2022/04/12 01:38:49;;;;;;;10.10;6.33;;;6.20;99.90;;;;;;5053651;28;20226;-60
2022/04/12 01:41:15;;;;;;;7.83;6.43;;;6.20;99.90;;;;;;5054910;28;20225;-62
2022/04/12 01:43:41;;;;;;;8.20;6.23;;;6.10;99.90;;;;;;5053619;28;20232;-61
2022/04/12 01:46:06;;;;;;;13.37;6.60;;;6.20;99.90;;;;;;5054779;28;20179;-61
2022/04/12 01:48:32;;;;;;;10.00;6.47;;;6.20;99.90;;;;;;5054642;28;20245;-61
2022/04/12 01:50:58;;;;;;;6.60;5.87;;;6.00;99.90;;;;;;5055170;28;20243;-61
2022/04/12 01:53:23;;;;;;;9.00;6.40;;;6.00;99.90;;;;;;5061014;28;20607;-61
2022/04/12 01:55:49;;;;;;;7.50;6.17;;;6.00;99.90;;;;;;5068739;28;20675;-61
2022/04/12 01:58:15;;;;;;;8.03;6.33;;;6.00;99.90;;;;;;5054695;28;20178;-61
2022/04/12 02:00:42;;;;;;;7.50;6.73;;;6.10;99.90;;;;;;5053077;28;20281;-61
2022/04/12 02:03:09;;;;;;;9.40;6.53;;;6.00;99.90;;;;;;5054187;28;20177;-61
2022/04/12 02:05:35;;;;;;;10.33;7.37;;;6.00;99.90;;;;;;5054621;28;20185;-60
2022/04/12 02:08:01;;;;;;;7.77;6.80;;;5.80;99.90;;;;;;5054175;28;20182;-61
2022/04/12 02:10:26;;;;;;;7.17;6.47;;;5.90;99.90;;;;;;5053038;28;20218;-61
2022/04/12 02:12:52;;;;;;;7.67;6.90;;;5.80;99.90;;;;;;5054776;28;20159;-61
2022/04/12 02:15:18;;;;;;;10.57;7.10;;;5.90;99.90;;;;;;5054266;28;20643;-62
2022/04/12 02:17:43;;;;;;;8.03;6.63;;;5.80;99.90;;;;;;5054484;28;20224;-61
2022/04/12 02:20:10;;;;;;;7.37;6.40;;;5.90;99.90;;;;;;5054645;28;20194;-61
2022/04/12 02:22:36;;;;;;;8.97;6.27;;;5.90;99.90;;;;;;5052932;28;20228;-61
2022/04/12 02:25:03;;;;;;;8.80;6.70;;;5.90;99.90;;;;;;5074115;28;20209;-61
2022/04/12 02:27:29;;;;;;;7.70;6.60;;;5.90;99.90;;;;;;5053146;28;20533;-61
2022/04/12 02:29:55;;;;;;;8.60;6.57;;;5.80;99.90;;;;;;5052882;28;20212;-60
2022/04/12 02:32:20;;;;;;;7.63;6.87;;;5.80;99.90;;;;;;5054036;28;20178;-61
2022/04/12 02:34:46;;;;;;;12.47;6.80;;;5.80;99.90;;;;;;5053996;28;20630;-61
2022/04/12 02:37:12;;;;;;;11.50;7.20;;;5.80;99.90;;;;;;5054162;28;20198;-61
2022/04/12 02:39:38;;;;;;;8.83;6.80;;;5.80;99.90;;;;;;5055705;28;20557;-60
2022/04/12 02:42:04;;;;;;;10.00;7.40;;;5.90;99.90;;;;;;5055874;28;20175;-61
2022/04/12 02:44:29;;;;;;;10.57;7.37;;;5.80;99.90;;;;;;5054971;28;20627;-60
2022/04/12 02:46:55;;;;;;;9.27;7.30;;;5.80;99.90;;;;;;5055059;28;20202;-60
2022/04/12 02:49:21;;;;;;;10.10;7.20;;;5.80;99.90;;;;;;5054319;28;20217;-60
2022/04/12 02:51:46;;;;;;;9.33;6.90;;;5.80;99.90;;;;;;5054708;28;20189;-60
2022/04/12 02:54:13;;;;;;;9.83;6.93;;;5.70;99.90;;;;;;5067428;28;20181;-61
2022/04/12 02:56:39;;;;;;;8.13;7.07;;;5.70;99.90;;;;;;5060709;28;20293;-60
2022/04/12 02:59:05;;;;;;;8.40;7.23;;;5.70;99.90;;;;;;5053577;28;20226;-60
2022/04/12 03:01:30;;;;;;;11.03;6.73;;;5.70;99.90;;;;;;5053564;28;20170;-60
2022/04/12 03:03:56;;;;;;;11.73;7.60;;;5.70;99.90;;;;;;5053434;28;20221;-61
2022/04/12 03:06:22;;;;;;;11.73;7.37;;;5.60;99.90;;;;;;5053541;28;20178;-61
2022/04/12 03:08:48;;;;;;;10.60;7.13;;;5.60;99.90;;;;;;5052146;28;20332;-60
2022/04/12 03:11:13;;;;;;;8.93;7.10;;;5.60;99.90;;;;;;5053419;28;20193;-61
2022/04/12 03:13:39;;;;;;;8.97;7.17;;;5.50;99.90;;;;;;5052173;28;20178;-60
2022/04/12 03:16:05;;;;;;;7.80;7.00;;;5.50;99.90;;;;;;5053714;28;20197;-61
2022/04/12 03:18:30;;;;;;;10.70;7.00;;;5.50;99.90;;;;;;5056135;28;20178;-61
2022/04/12 03:20:56;;;;;;;9.37;7.33;;;5.50;99.90;;;;;;5059952;28;20550;-60
2022/04/12 03:23:22;;;;;;;9.60;7.17;;;5.50;99.90;;;;;;5066050;28;20174;-60
2022/04/12 03:25:50;;;;;;;9.13;7.37;;;5.60;99.90;;;;;;5074003;28;20179;-62
2022/04/12 03:28:16;;;;;;;8.23;7.17;;;5.60;99.90;;;;;;5059955;28;20565;-61
2022/04/12 03:30:42;;;;;;;10.47;6.97;;;5.60;99.90;;;;;;5059774;28;20271;-61
2022/04/12 03:33:07;;;;;;;7.77;6.97;;;5.50;99.90;;;;;;5059645;28;20178;-61
2022/04/12 03:35:33;;;;;;;8.67;7.77;;;5.60;99.90;;;;;;5059895;28;20177;-60
2022/04/12 03:38:02;;;;;;;7.97;7.13;;;5.60;99.90;;;;;;5059840;28;20166;-61
2022/04/12 03:40:32;;;;;;;9.20;7.20;;;5.60;99.90;;;;;;5059658;28;20193;-62
2022/04/12 03:42:59;;;;;;;9.80;7.43;;;5.70;99.90;;;;;;5058511;28;20178;-60
2022/04/12 03:45:26;;;;;;;12.97;7.00;;;5.70;99.90;;;;;;5060224;28;20216;-61
2022/04/12 03:47:51;;;;;;;8.87;7.40;;;5.70;99.90;;;;;;5059990;28;20170;-62
2022/04/12 03:50:17;;;;;;;11.13;7.03;;;5.80;99.90;;;;;;5059391;28;20194;-60
2022/04/12 03:52:43;;;;;;;11.43;7.70;;;5.70;99.90;;;;;;5060709;28;20623;-61
2022/04/12 03:55:10;;;;;;;8.40;7.47;;;5.70;99.90;;;;;;5079258;28;20166;-61
2022/04/12 03:57:36;;;;;;;9.27;7.27;;;5.80;99.90;;;;;;5060183;28;20186;-61
2022/04/12 04:00:08;;;;;;;10.90;7.73;;;5.70;99.90;;;;;;5059554;28;20565;-62
2022/04/12 04:02:34;;;;;;;9.40;7.10;;;5.70;99.90;;;;;;5059954;28;20179;-60
2022/04/12 04:05:00;;;;;;;8.87;6.97;;;5.70;99.90;;;;;;5059311;28;20257;-61
2022/04/12 04:07:27;;;;;;;12.23;7.30;;;5.70;99.90;;;;;;5059598;28;20257;-60
2022/04/12 04:09:53;;;;;;;12.37;7.77;;;5.70;99.90;;;;;;5059298;28;20194;-61
2022/04/12 04:12:19;;;;;;;8.73;7.07;;;5.70;99.90;;;;;;5059692;28;20265;-61
2022/04/12 04:14:45;;;;;;;10.27;7.33;;;5.60;99.90;;;;;;5059455;28;20213;-60
2022/04/12 04:17:10;;;;;;;7.97;7.17;;;5.60;99.90;;;;;;5059323;28;20328;-63
2022/04/12 04:19:36;;;;;;;9.70;7.27;;;5.60;99.90;;;;;;5059435;28;20190;-61
2022/04/12 04:22:02;;;;;;;9.50;6.93;;;5.60;99.90;;;;;;5059649;28;20166;-60
2022/04/12 04:24:28;;;;;;;14.97;8.73;;;5.70;99.90;;;;;;5074560;28;20268;-61
2022/04/12 04:26:55;;;;;;;13.50;9.50;;;5.70;99.90;;;;;;5064347;28;20653;-60
2022/04/12 04:29:23;;;;;;;13.27;10.20;;;5.70;99.90;;;;;;5058251;28;20305;-61
2022/04/12 04:31:50;;;;;;;10.43;7.93;;;5.70;99.90;;;;;;5056096;28;20171;-61
2022/04/12 04:34:16;;;;;;;9.43;7.37;;;5.70;99.90;;;;;;5056085;28;20188;-61
2022/04/12 04:36:42;;;;;;;10.17;8.17;;;5.80;99.90;;;;;;5056517;28;20213;-61
2022/04/12 04:39:07;;;;;;;9.03;7.50;;;5.80;99.90;;;;;;5055524;28;20195;-62
2022/04/12 04:41:33;;;;;;;9.50;7.13;;;5.80;99.90;;;;;;5056290;28;20255;-62
2022/04/12 04:44:00;;;;;;;9.00;7.53;;;5.80;99.90;;;;;;5055960;28;20170;-64
2022/04/12 04:46:26;;;;;;;9.37;7.73;;;5.80;99.90;;;;;;5055932;28;20171;-62
2022/04/12 04:48:52;;;;;;;7.83;6.90;;;5.90;99.90;;;;;;5055476;28;20616;-62
2022/04/12 04:51:17;;;;;;;10.63;8.07;;;5.90;99.90;;;;;;5054541;28;20185;-61
2022/04/12 04:53:49;;;;;;;12.80;8.10;;;5.90;99.90;;;;;;5064781;28;20181;-61
2022/04/12 04:56:15;;;;;;;9.63;7.63;;;5.90;99.90;;;;;;5066033;28;20209;-62
2022/04/12 04:58:41;;;;;;;9.17;7.60;;;5.90;99.90;;;;;;5055754;28;20170;-61
2022/04/12 05:01:07;;;;;;;9.70;7.13;;;5.90;99.90;;;;;;5055620;28;20170;-62
2022/04/12 05:03:32;;;;;;;9.13;7.50;;;5.90;99.90;;;;;;5055603;28;20174;-61
2022/04/12 05:05:58;;;;;;;8.83;7.33;;;5.90;99.90;;;;;;5055454;28;20182;-61
2022/04/12 05:08:24;;;;;;;10.00;7.87;;;6.00;99.90;;;;;;5055842;28;20174;-61
2022/04/12 05:10:49;;;;;;;8.17;7.00;;;6.10;99.90;;;;;;5055350;28;20193;-61
2022/04/12 05:13:16;;;;;;;10.60;7.27;;;6.20;99.90;;;;;;5055521;28;20261;-62
2022/04/12 05:15:42;;;;;;;11.33;7.37;;;6.20;99.90;;;;;;5055327;28;20175;-61
2022/04/12 05:18:08;;;;;;;7.43;6.43;;;6.30;99.90;;;;;;5055491;28;20224;-60
2022/04/12 05:20:34;;;;;;;10.07;6.97;;;6.30;99.90;;;;;;5054934;28;20190;-61
2022/04/12 05:23:00;;;;;;;11.10;7.17;;;6.40;99.90;;;;;;5058214;28;20548;-62
2022/04/12 05:25:26;;;;;;;8.27;6.73;;;6.50;99.90;;;;;;5072499;28;20268;-61
2022/04/12 05:27:52;;;;;;;8.57;6.70;;;6.50;99.90;;;;;;5055401;28;20186;-60
2022/04/12 05:30:18;;;;;;;6.80;6.03;;;6.60;99.90;;;;;;5055084;28;20198;-62
2022/04/12 05:32:45;;;;;;;9.43;6.77;;;6.60;99.90;;;;;;5055078;28;20186;-61
2022/04/12 05:35:12;;;;;;;8.80;6.80;;;6.70;99.90;;;;;;5053506;28;20631;-61
2022/04/12 05:37:41;;;;;;;8.27;6.83;;;6.70;99.90;;;;;;5053655;28;20297;-61
2022/04/12 05:40:09;;;;;;;12.63;6.80;;;6.80;99.90;;;;;;5054798;28;20195;-60
2022/04/12 05:42:35;;;;;;;9.40;6.93;;;6.80;99.90;;;;;;5053989;28;20171;-60
2022/04/12 05:45:01;;;;;;;8.03;6.93;;;6.90;99.90;;;;;;5054749;28;20689;-61
2022/04/12 05:47:27;;;;;;;7.80;6.43;;;7.00;99.90;;;;;;5054944;28;20193;-61
2022/04/12 05:49:54;;;;;;;6.50;5.90;;;7.00;99.90;;;;;;5054512;28;20682;-61
2022/04/12 05:52:19;;;;;;;8.27;6.87;;;7.10;99.90;;;;;;5054871;28;20519;-62
2022/04/12 05:54:45;;;;;;;6.30;5.73;;;7.20;99.90;;;;;;5072162;28;20185;-61
2022/04/12 05:57:10;;;;;;;7.20;6.37;;;7.30;99.90;;;;;;5057211;28;20745;-60
2022/04/12 05:59:36;;;;;;;7.03;5.30;;;7.30;99.90;;;;;;5054852;28;20675;-60
2022/04/12 06:02:02;;;;;;;8.57;6.23;;;7.40;99.90;;;;;;5054806;28;20496;-60
2022/04/12 06:04:27;;;;;;;8.43;5.83;;;7.50;99.90;;;;;;5054454;28;20170;-61
2022/04/12 06:06:53;;;;;;;7.37;5.73;;;7.60;99.90;;;;;;5054476;28;20183;-61
2022/04/12 06:09:19;;;;;;;5.90;5.40;;;7.70;99.90;;;;;;5054606;28;20244;-61
2022/04/12 06:11:45;;;;;;;7.40;5.70;;;7.90;99.90;;;;;;5054778;28;20543;-61
2022/04/12 06:14:10;;;;;;;6.90;5.40;;;8.10;99.90;;;;;;5053185;28;20663;-61
2022/04/12 06:16:36;;;;;;;7.37;5.70;;;8.30;99.90;;;;;;5054337;28;20737;-61
2022/04/12 06:19:02;;;;;;;6.10;5.43;;;8.50;99.90;;;;;;5054146;28;20190;-61
2022/04/12 06:21:28;;;;;;;7.47;5.27;;;8.70;99.90;;;;;;5052949;28;20185;-61
2022/04/12 06:23:54;;;;;;;8.07;5.60;;;8.90;99.90;;;;;;5064556;28;20177;-61
2022/04/12 06:26:19;;;;;;;7.80;5.30;;;9.10;99.90;;;;;;5063650;28;20179;-61
2022/04/12 06:28:45;;;;;;;6.13;5.50;;;9.20;99.90;;;;;;5053868;28;20194;-61
2022/04/12 06:31:11;;;;;;;7.07;5.63;;;9.40;99.90;;;;;;5053911;28;20185;-61
2022/04/12 06:33:36;;;;;;;8.60;5.63;;;9.50;99.90;;;;;;5053572;28;20254;-61
2022/04/12 06:36:02;;;;;;;8.53;5.83;;;9.60;99.90;;;;;;5052406;28;20678;-61
2022/04/12 06:38:28;;;;;;;7.50;5.33;;;9.80;99.90;;;;;;5053929;28;20193;-61
2022/04/12 06:40:53;;;;;;;5.63;4.97;;;10.00;99.90;;;;;;5053889;28;20182;-61
2022/04/12 06:43:19;;;;;;;6.97;5.33;;;10.20;99.90;;;;;;5053699;28;20219;-61
2022/04/12 06:45:45;;;;;;;6.33;5.33;;;10.40;99.90;;;;;;5053714;28;20173;-61
2022/04/12 06:48:11;;;;;;;6.17;5.10;;;10.50;99.90;;;;;;5052325;28;20175;-61
2022/04/12 06:50:36;;;;;;;5.30;4.70;;;10.70;99.90;;;;;;5053372;28;20266;-61
2022/04/12 06:53:05;;;;;;;5.80;5.20;;;10.80;99.90;;;;;;5056750;28;20177;-61
2022/04/12 06:55:31;;;;;;;5.33;4.80;;;11.00;99.90;;;;;;5069892;28;20244;-62
2022/04/12 06:57:57;;;;;;;5.87;5.20;;;11.10;99.90;;;;;;5053377;28;20162;-61
2022/04/12 07:00:23;;;;;;;7.10;5.27;;;11.40;99.90;;;;;;5053487;28;20273;-61
2022/04/12 07:02:49;;;;;;;6.50;5.27;;;11.60;99.90;;;;;;5053399;28;20220;-61
2022/04/12 07:05:15;;;;;;;5.83;4.83;;;11.80;99.90;;;;;;5051891;28;20177;-61
2022/04/12 07:07:42;;;;;;;5.43;4.83;;;11.90;99.90;;;;;;5053467;28;20179;-63
2022/04/12 07:10:11;;;;;;;7.63;5.17;;;12.20;99.90;;;;;;5053019;28;20289;-61
2022/04/12 07:12:37;;;;;;;6.17;5.00;;;12.30;99.90;;;;;;5053289;28;20264;-61
2022/04/12 07:15:04;;;;;;;5.77;4.63;;;12.40;99.90;;;;;;5053446;28;20177;-62
2022/04/12 07:17:30;;;;;;;8.53;5.43;;;12.50;99.90;;;;;;5053625;28;20221;-61
2022/04/12 07:19:56;;;;;;;5.68;4.78;;;12.60;99.90;;;;;;5053525;28;20655;-61
2022/04/12 07:22:22;;;;;;;6.78;4.95;;;12.70;99.90;;;;;;5051955;28;20174;-63
2022/04/12 07:24:47;;;;;;;5.07;4.50;;;12.90;99.90;;;;;;5069830;28;20182;-61
2022/04/12 07:27:13;;;;;;;7.85;5.00;;;13.00;99.90;;;;;;5055508;28;20554;-61
2022/04/12 07:29:39;;;;;;;5.20;4.70;;;13.10;99.90;;;;;;5053159;28;20195;-61
2022/04/12 07:32:05;;;;;;;7.63;4.70;;;13.20;99.90;;;;;;5053362;28;20177;-61
2022/04/12 07:34:31;;;;;;;6.18;4.72;;;13.30;99.90;;;;;;5052899;28;20213;-62
2022/04/12 07:36:57;;;;;;;7.72;5.28;;;13.40;99.90;;;;;;5053274;28;20233;-62
2022/04/12 07:39:23;;;;;;;5.93;4.75;;;13.50;99.90;;;;;;5052957;28;20202;-62
2022/04/12 07:41:51;;;;;;;7.63;4.60;;;13.60;99.90;;;;;;5053182;28;20212;-62
2022/04/12 07:44:18;;;;;;;6.85;4.90;;;13.70;99.90;;;;;;5053087;28;20170;-62
2022/04/12 07:46:44;;;;;;;8.27;4.65;;;13.80;99.90;;;;;;5053274;28;20552;-62
2022/04/12 07:49:11;;;;;;;5.85;5.03;;;13.90;99.90;;;;;;5052757;28;20209;-61
2022/04/12 07:51:37;;;;;;;5.60;4.25;;;14.10;99.90;;;;;;5052930;28;20170;-61
2022/04/12 07:54:03;;;;;;;5.53;4.85;;;14.20;99.90;;;;;;5064631;28;20185;-62
2022/04/12 07:56:30;;;;;;;6.63;4.20;;;14.40;99.90;;;;;;5061365;28;20264;-61
2022/04/12 07:58:55;;;;;;;6.80;4.65;;;14.60;99.90;;;;;;5053075;28;20191;-62
2022/04/12 08:01:21;;;;;;;6.38;4.72;;;14.80;99.90;;;;;;5052873;28;20196;-62
2022/04/12 08:03:47;;;;;;;6.75;4.60;;;15.00;99.90;;;;;;5053107;28;20182;-62
2022/04/12 08:06:13;;;;;;;5.78;4.95;;;15.10;99.90;;;;;;5055193;28;20178;-62
2022/04/12 08:08:39;;;;;;;6.13;4.65;;;15.20;99.90;;;;;;5055241;28;20537;-61
2022/04/12 08:11:05;;;;;;;7.63;4.32;;;15.40;99.90;;;;;;5056438;28;20190;-61
2022/04/12 08:13:32;;;;;;;8.63;4.38;;;15.50;99.90;;;;;;5056526;28;20174;-62
2022/04/12 08:15:57;;;;;;;4.93;4.22;;;15.60;99.90;;;;;;5056405;28;20232;-61
2022/04/12 08:18:23;;;;;;;4.30;3.88;;;15.70;99.90;;;;;;5056710;28;20170;-62
2022/04/12 08:20:54;;;;;;;6.35;4.35;;;16.00;99.90;;;;;;5056202;28;20171;-61
2022/04/12 08:23:23;;;;;;;5.13;4.38;;;16.40;99.90;;;;;;5062174;28;20182;-61
2022/04/12 08:25:50;;;;;;;6.85;4.00;;;17.50;99.90;;;;;;5070391;28;20559;-62
2022/04/12 08:28:16;;;;;;;5.10;3.80;;;19.00;99.90;;;;;;5056342;28;20619;-62
2022/04/12 08:30:42;;;;;;;9.05;4.13;;;20.80;99.90;;;;;;5056200;28;20190;-61
2022/04/12 08:33:08;;;;;;;6.45;3.47;;;21.60;99.90;;;;;;5056182;28;20178;-62
2022/04/12 08:35:33;;;;;;;4.10;3.15;;;22.40;99.90;;;;;;5055786;28;20170;-62
2022/04/12 08:37:59;;;;;;;6.43;3.42;;;22.40;99.90;;;;;;5056084;28;20541;-62
2022/04/12 08:40:25;;;;;;;5.25;3.53;;;22.90;99.90;;;;;;5055950;28;20195;-62
2022/04/12 08:42:54;;;;;;;7.20;3.50;;;23.20;99.90;;;;;;5056186;28;20180;-62
2022/04/12 08:45:19;;;;;;;5.22;3.83;;;23.40;99.90;;;;;;5056577;28;20170;-62
2022/04/12 08:47:45;;;;;;;4.10;3.15;;;23.40;99.90;;;;;;5056577;28;20507;-62
2022/04/12 08:50:11;;;;;;;7.05;3.42;;;23.60;99.90;;;;;;5055877;28;20687;-62
2022/04/12 08:52:38;;;;;;;5.40;3.35;;;23.80;99.90;;;;;;5054988;28;20175;-62
2022/04/12 08:55:08;;;;;;;7.45;3.15;;;24.00;99.90;;;;;;5056363;28;20665;-62
2022/04/12 08:57:34;;;;;;;4.10;3.10;;;23.90;99.90;;;;;;5055973;28;20209;-62
2022/04/12 09:00:00;;;;;;;5.18;3.20;;;24.20;99.90;;;;;;5055808;28;20195;-62
2022/04/12 09:02:26;;;;;;;4.95;3.22;;;24.20;99.90;;;;;;5055671;28;20171;-62
2022/04/12 09:04:51;;;;;;;4.75;3.13;;;24.30;99.90;;;;;;5055506;28;20197;-62
2022/04/12 09:07:22;;;;;;;4.30;3.08;;;24.40;99.90;;;;;;5055580;28;20183;-62
2022/04/12 09:09:48;;;;;;;4.28;3.33;;;24.40;99.90;;;;;;5055739;28;20671;-62
2022/04/12 09:12:14;;;;;;;4.07;2.85;;;24.40;99.90;;;;;;5056169;28;20173;-62
2022/04/12 09:14:43;;;;;;;4.07;3.00;;;24.10;99.90;;;;;;5055494;28;20254;-63
2022/04/12 09:17:11;;;;;;;3.05;2.67;;;24.10;99.90;;;;;;5055218;28;20206;-62
2022/04/12 09:19:48;;;;;;;4.00;2.63;;;24.00;99.90;;;;;;5055412;28;20190;-63
2022/04/12 09:22:21;;;;;;;4.07;2.70;;;23.90;99.90;;;;;;5056304;28;20162;-62
2022/04/12 09:24:52;;;;;;;6.47;2.53;;;23.60;99.90;;;;;;5069613;28;20189;-62
2022/04/12 09:27:20;;;;;;;6.25;3.10;;;23.60;99.90;;;;;;5075040;28;20188;-61
2022/04/12 09:29:50;;;;;;;3.28;2.55;;;23.20;99.90;;;;;;5075512;28;20193;-62
2022/04/12 09:32:19;;;;;;;2.50;2.15;;;22.90;99.90;;;;;;5074184;28;20182;-61
2022/04/12 09:34:45;;;;;;;5.45;2.90;;;22.30;99.90;;;;;;5075228;28;20227;-62
2022/04/12 09:37:17;;;;;;;3.55;2.20;;;21.80;99.90;;;;;;5075061;28;20229;-61
2022/04/12 09:39:55;;;;;;;5.35;2.70;;;21.50;99.90;;;;;;5075051;28;20209;-62
2022/04/12 09:42:57;;;;;;;3.72;2.42;;;21.20;99.90;;;;;;5074975;28;20678;-61
2022/04/12 09:45:24;;;;;;;2.78;2.35;;;20.80;99.90;;;;;;5074895;28;20165;-61
2022/04/12 09:47:51;;;;;;;2.65;2.20;;;20.90;99.90;;;;;;5073553;28;20194;-62
2022/04/12 09:50:25;;;;;;;5.40;2.50;;;20.90;99.90;;;;;;5074677;28;20225;-62
2022/04/12 09:53:02;;;;;;;3.75;2.40;;;20.90;99.90;;;;;;5072791;28;20515;-62
2022/04/12 09:55:43;;;;;;;3.25;2.25;;;20.80;99.90;;;;;;5057980;28;20268;-62
2022/04/12 09:58:12;;;;;;;3.97;2.30;;;20.70;99.90;;;;;;5074509;28;20173;-62
2022/04/12 10:00:39;;;;;;;4.70;2.17;;;20.90;99.90;;;;;;5074324;28;20186;-61
2022/04/12 10:03:10;;;;;;;2.30;2.05;;;20.70;99.90;;;;;;5074635;28;20581;-62
2022/04/12 10:05:36;;;;;;;3.00;2.40;;;20.80;99.90;;;;;;5074273;28;20247;-61
2022/04/12 10:08:06;;;;;;;3.83;2.20;;;20.70;99.90;;;;;;5074514;28;20185;-62
2022/04/12 10:10:32;;;;;;;5.95;2.40;;;20.60;99.90;;;;;;5074139;28;20205;-61
2022/04/12 10:12:59;;;;;;;2.55;2.13;;;20.60;99.90;;;;;;5074177;28;20172;-61
2022/04/12 10:15:27;;;;;;;4.70;2.40;;;20.40;99.90;;;;;;5072825;28;20180;-61
2022/04/12 10:17:54;;;;;;;2.47;2.13;;;20.40;99.90;;;;;;5074262;28;20197;-62
2022/04/12 10:20:21;;;;;;;3.70;2.00;;;20.50;99.90;;;;;;5073870;28;20189;-61
2022/04/12 10:22:47;;;;;;;4.43;2.47;;;20.50;99.90;;;;;;5072904;28;20704;-61
2022/04/12 10:25:18;;;;;;;3.75;2.30;;;20.60;99.90;;;;;;5055354;28;20200;-62
2022/04/12 10:27:46;;;;;;;3.05;2.33;;;20.70;99.90;;;;;;5073294;28;20269;-61
2022/04/12 10:30:17;;;;;;;2.40;1.98;;;20.80;99.90;;;;;;5073840;28;20206;-62
2022/04/12 10:33:06;;;;;;;2.30;2.10;;;20.90;99.90;;;;;;5073914;28;20201;-61
2022/04/12 10:35:51;;;;;;;2.58;1.90;;;21.00;99.90;;;;;;5072194;28;20189;-61
2022/04/12 10:38:19;;;;;;;2.60;2.17;;;21.00;99.90;;;;;;5073801;28;20589;-61
2022/04/12 10:40:49;;;;;;;2.63;2.00;;;21.10;99.90;;;;;;5073883;28;20280;-61
2022/04/12 10:43:33;;;;;;;2.67;2.10;;;21.10;99.90;;;;;;5073975;28;20561;-61
2022/04/12 10:46:08;;;;;;;2.22;1.70;;;21.10;99.90;;;;;;5074007;28;20624;-61
2022/04/12 10:48:34;;;;;;;4.10;2.13;;;21.20;99.90;;;;;;5073661;28;20184;-61
2022/04/12 10:51:02;;;;;;;4.53;2.10;;;21.20;99.90;;;;;;5073442;28;20650;-61
2022/04/12 10:53:39;;;;;;;2.45;2.25;;;21.10;99.90;;;;;;5066844;28;20197;-61
2022/04/12 10:56:10;;;;;;;4.43;2.40;;;20.90;99.90;;;;;;5062066;28;20203;-61
2022/04/12 10:58:36;;;;;;;2.95;2.33;;;21.10;99.90;;;;;;5072320;28;20173;-61
2022/04/12 11:01:03;;;;;;;6.57;2.28;;;21.30;99.90;;;;;;5073500;28;20178;-62
2022/04/12 11:03:41;;;;;;;1.95;1.80;;;21.60;99.90;;;;;;5072183;28;20196;-62
2022/04/12 11:06:20;;;;;;;4.47;1.90;;;21.70;99.90;;;;;;5073266;28;20205;-62
2022/04/12 11:08:49;;;;;;;4.22;2.30;;;22.00;99.90;;;;;;5073624;28;20208;-63
2022/04/12 11:11:19;;;;;;;2.85;2.03;;;22.10;99.90;;;;;;5073238;28;20189;-63
2022/04/12 11:13:44;;;;;;;3.60;1.98;;;22.20;99.90;;;;;;5073323;28;20173;-62
2022/04/12 11:16:12;;;;;;;1.90;1.75;;;22.10;99.90;;;;;;5071905;28;20743;-62
2022/04/12 11:18:50;;;;;;;4.70;2.22;;;22.10;99.90;;;;;;5073307;28;20170;-62
2022/04/12 11:21:18;;;;;;;2.45;2.03;;;22.30;99.90;;;;;;5073161;28;20227;-62
2022/04/12 11:23:45;;;;;;;3.08;2.13;;;22.60;99.90;;;;;;5064537;28;20261;-63
2022/04/12 11:26:47;;;;;;;1.85;1.67;;;22.90;99.90;;;;;;5062663;28;20189;-63
2022/04/12 11:29:18;;;;;;;3.38;1.67;;;23.10;99.90;;;;;;5073655;28;20272;-63
2022/04/12 11:31:45;;;;;;;4.25;2.25;;;23.00;99.90;;;;;;5072193;28;20590;-63
2022/04/12 11:34:12;;;;;;;3.90;2.03;;;23.10;99.90;;;;;;5073144;28;20221;-63
2022/04/12 11:36:46;;;;;;;2.80;1.70;;;23.10;99.90;;;;;;5072864;28;20247;-63
2022/04/12 11:39:23;;;;;;;3.08;2.20;;;23.20;99.90;;;;;;5074512;28;20189;-63
2022/04/12 11:41:50;;;;;;;3.97;2.03;;;23.20;99.90;;;;;;5077728;28;20170;-63
2022/04/12 11:44:21;;;;;;;3.33;1.80;;;23.10;99.90;;;;;;5077486;28;20162;-63
2022/04/12 11:46:55;;;;;;;5.07;2.35;;;23.40;99.90;;;;;;5077330;28;20167;-63
2022/04/12 11:49:27;;;;;;;3.20;1.95;;;23.60;99.90;;;;;;5077148;28;20224;-63
2022/04/12 11:51:53;;;;;;;2.33;1.63;;;23.70;99.90;;;;;;5076743;28;20174;-63
2022/04/12 11:54:26;;;;;;;2.75;1.95;;;23.90;99.90;;;;;;5062923;28;20182;-63
2022/04/12 11:57:23;;;;;;;1.90;1.70;;;23.60;99.90;;;;;;5071548;28;20240;-63
2022/04/12 11:59:57;;;;;;;2.25;2.05;;;23.90;99.90;;;;;;5076760;28;20281;-63
2022/04/12 12:02:28;;;;;;;2.17;1.65;;;24.50;99.90;;;;;;5077104;28;20165;-63
2022/04/12 12:05:04;;;;;;;5.15;1.70;;;24.60;99.90;;;;;;5077007;28;20655;-62
2022/04/12 12:07:31;;;;;;;1.73;1.63;;;25.10;99.90;;;;;;5079769;28;20561;-62
2022/04/12 12:10:02;;;;;;;3.08;1.60;;;25.20;99.90;;;;;;5078156;28;20273;-63
2022/04/12 12:12:45;;;;;;;3.35;1.63;;;25.40;99.90;;;;;;5077207;28;20241;-63
2022/04/12 12:15:14;;;;;;;1.58;1.48;;;25.50;99.90;;;;;;5077212;28;20166;-64
2022/04/12 12:17:40;;;;;;;6.30;1.83;;;25.50;99.90;;;;;;5076464;28;20197;-63
2022/04/12 12:20:07;;;;;;;1.77;1.63;;;25.00;99.90;;;;;;5076079;28;20200;-63
2022/04/12 12:22:38;;;;;;;1.50;1.40;;;24.90;99.90;;;;;;5075387;28;20260;-63
2022/04/12 12:25:05;;;;;;;4.00;1.80;;;24.90;99.90;;;;;;5056879;28;20254;-63
2022/04/12 12:27:37;;;;;;;3.30;1.75;;;24.90;99.90;;;;;;5056689;28;20185;-63
2022/04/12 12:30:14;;;;;;;5.00;1.88;;;24.80;99.90;;;;;;5056380;28;20202;-63
2022/04/12 12:32:42;;;;;;;2.33;1.80;;;25.00;99.90;;;;;;5057242;28;20207;-64
2022/04/12 12:35:11;;;;;;;3.28;2.00;;;25.00;99.90;;;;;;5056190;28;20198;-63
2022/04/12 12:37:38;;;;;;;1.85;1.65;;;25.00;99.90;;;;;;5056724;28;20264;-63
2022/04/12 12:40:22;;;;;;;5.32;1.80;;;25.00;99.90;;;;;;5056954;28;20202;-62
2022/04/12 12:42:49;;;;;;;2.08;1.52;;;24.80;99.90;;;;;;5056728;28;20179;-62
2022/04/12 12:45:23;;;;;;;2.72;1.73;;;24.80;99.90;;;;;;5055884;28;20171;-62
2022/04/12 12:47:56;;;;;;;1.83;1.70;;;24.70;99.90;;;;;;5054721;28;20225;-62
2022/04/12 12:50:27;;;;;;;3.05;1.67;;;24.60;99.90;;;;;;5053864;28;20205;-62
2022/04/12 12:53:01;;;;;;;5.70;2.17;;;24.40;99.90;;;;;;5056645;28;20178;-63
2022/04/12 12:55:32;;;;;;;3.25;1.80;;;24.00;99.90;;;;;;5072791;28;20182;-62